Time;durP1;ratioP1;P1;durP2;ratioP2;P2;SDS_P1;SDS_P2;PMS_P1;PMS_P2;Temp;Humidity;BMP_temperature;BMP_pressure;BME280_temperature;BME280_humidity;BME280_pressure;Samples;Min_cycle;Max_cycle;Signal;HPM_P1;HPM_P2
2023/02/09 00:01:13;;;;;;;26.80;10.32;;;;;;;0.22;100.00;103056.34;5026806;28;20096;-41
2023/02/09 00:03:39;;;;;;;24.15;11.38;;;;;;;0.22;100.00;103062.47;5024682;28;20088;-42
2023/02/09 00:06:06;;;;;;;24.92;11.30;;;;;;;0.19;100.00;103053.81;5031626;28;20061;-43
2023/02/09 00:08:32;;;;;;;24.73;10.20;;;;;;;0.14;100.00;103042.53;5019971;28;20025;-42
2023/02/09 00:10:58;;;;;;;21.95;11.38;;;;;;;0.12;100.00;103045.22;5027138;28;20387;-44
2023/02/09 00:13:24;;;;;;;25.30;10.77;;;;;;;0.03;100.00;103042.94;5022947;28;20036;-42
2023/02/09 00:15:52;;;;;;;24.58;10.55;;;;;;;-0.03;100.00;103045.81;5031817;28;20025;-42
2023/02/09 00:18:17;;;;;;;24.97;10.53;;;;;;;-0.10;100.00;103044.34;5024108;28;20087;-43
2023/02/09 00:20:43;;;;;;;21.60;10.57;;;;;;;-0.15;100.00;103046.31;5031615;28;20191;-41
2023/02/09 00:23:08;;;;;;;23.00;9.68;;;;;;;-0.14;100.00;103042.72;5026306;28;20093;-44
2023/02/09 00:25:34;;;;;;;21.10;11.88;;;;;;;-0.11;100.00;103042.59;5031012;28;20037;-43
2023/02/09 00:27:59;;;;;;;19.42;10.50;;;;;;;-0.09;100.00;103046.06;5024916;28;20460;-42
2023/02/09 00:30:24;;;;;;;22.52;10.02;;;;;;;-0.06;100.00;103051.22;5030639;28;20270;-41
2023/02/09 00:32:50;;;;;;;27.00;9.75;;;;;;;0.02;100.00;103049.16;5026439;28;20045;-42
2023/02/09 00:35:16;;;;;;;19.33;9.48;;;;;;;0.03;100.00;103045.59;5030239;28;20037;-41
2023/02/09 00:37:41;;;;;;;18.40;8.80;;;;;;;0.04;100.00;103034.06;5029291;28;20037;-43
2023/02/09 00:40:07;;;;;;;19.85;8.98;;;;;;;0.26;100.00;103030.56;5030485;28;20405;-42
2023/02/09 00:42:33;;;;;;;19.48;8.45;;;;;;;0.28;100.00;103036.69;5029270;28;20109;-42
2023/02/09 00:44:58;;;;;;;18.58;8.48;;;;;;;0.38;100.00;103035.41;5029657;28;20029;-42
2023/02/09 00:47:23;;;;;;;21.40;8.40;;;;;;;0.46;100.00;103035.09;5029926;28;20026;-42
2023/02/09 00:49:49;;;;;;;15.18;6.95;;;;;;;0.55;100.00;103027.59;5026241;28;20373;-42
2023/02/09 00:52:14;;;;;;;13.93;7.60;;;;;;;0.63;100.00;103019.34;5030218;28;20135;-43
2023/02/09 00:54:39;;;;;;;15.38;7.50;;;;;;;0.78;100.00;103024.00;5030866;28;20041;-42
2023/02/09 00:57:05;;;;;;;17.15;7.57;;;;;;;0.90;98.55;103019.97;5028283;28;20030;-42
2023/02/09 00:59:32;;;;;;;15.73;7.93;;;;;;;0.95;97.11;103025.94;5029251;28;20082;-43
2023/02/09 01:01:58;;;;;;;19.52;8.65;;;;;;;0.96;97.89;103018.84;5031035;28;20040;-43
2023/02/09 01:04:23;;;;;;;20.38;7.75;;;;;;;0.94;97.40;103026.00;5026538;28;20025;-44
2023/02/09 01:06:48;;;;;;;15.90;7.75;;;;;;;1.07;92.77;103014.78;5030488;28;20061;-42
2023/02/09 01:09:14;;;;;;;17.83;7.65;;;;;;;1.10;93.02;103014.66;5028689;28;20052;-42
2023/02/09 01:11:39;;;;;;;18.00;7.60;;;;;;;1.14;91.83;103011.91;5030415;28;20025;-42
2023/02/09 01:14:04;;;;;;;12.55;7.28;;;;;;;1.21;89.82;103005.38;5027910;28;20053;-43
2023/02/09 01:16:31;;;;;;;19.45;8.27;;;;;;;1.15;90.01;103005.66;5015268;28;20040;-42
2023/02/09 01:19:01;;;;;;;13.25;7.20;;;;;;;1.18;88.42;103010.81;5030342;28;20458;-43
2023/02/09 01:21:26;;;;;;;16.20;8.10;;;;;;;1.16;89.67;103020.63;5029483;28;20087;-43
2023/02/09 01:23:51;;;;;;;16.48;7.85;;;;;;;1.14;89.84;103012.75;5029195;28;20033;-43
2023/02/09 01:26:18;;;;;;;22.40;8.65;;;;;;;1.08;89.98;103021.84;5030589;28;20109;-43
2023/02/09 01:28:43;;;;;;;18.17;8.27;;;;;;;1.02;90.86;103031.84;5027689;28;20034;-42
2023/02/09 01:31:31;;;;;;;18.00;8.45;;;;;;;0.96;91.96;103019.72;5023560;28;20087;-41
2023/02/09 01:33:58;;;;;;;14.90;8.27;;;;;;;0.93;93.93;103011.88;5027153;28;20077;-43
2023/02/09 01:36:24;;;;;;;18.83;8.07;;;;;;;0.88;93.69;103009.44;5029192;28;20025;-42
2023/02/09 01:38:49;;;;;;;20.30;8.25;;;;;;;0.88;93.88;103011.22;5030146;28;20467;-41
2023/02/09 01:41:15;;;;;;;20.15;8.35;;;;;;;0.87;95.13;103017.47;5030437;28;20112;-43
2023/02/09 01:43:53;;;;;;;19.08;8.88;;;;;;;0.86;95.45;103011.28;5013430;28;20037;-41
2023/02/09 01:46:20;;;;;;;16.23;7.78;;;;;;;0.95;95.34;103018.00;5009696;28;20048;-43
2023/02/09 01:48:47;;;;;;;14.95;8.25;;;;;;;1.09;94.36;103010.28;5023653;28;20031;-43
2023/02/09 01:51:13;;;;;;;18.02;8.18;;;;;;;1.21;93.18;103013.31;5029196;28;20087;-43
2023/02/09 01:53:39;;;;;;;19.48;8.38;;;;;;;1.28;92.66;103015.63;5030893;28;20017;-43
2023/02/09 01:56:07;;;;;;;18.75;8.20;;;;;;;1.29;92.36;103019.16;5026331;28;20060;-43
2023/02/09 01:58:33;;;;;;;18.80;9.20;;;;;;;1.31;92.10;103009.34;5012787;28;20033;-42
2023/02/09 02:00:58;;;;;;;15.07;8.27;;;;;;;1.30;92.47;103012.94;5028792;28;20315;-43
2023/02/09 02:03:25;;;;;;;16.92;8.13;;;;;;;1.29;92.31;103014.72;5024107;28;20025;-43
2023/02/09 02:05:54;;;;;;;15.07;8.68;;;;;;;1.33;91.33;103014.59;5029328;28;20029;-43
2023/02/09 02:08:44;;;;;;;16.95;8.75;;;;;;;1.34;92.20;103008.34;5020737;28;20049;-45
2023/02/09 02:11:09;;;;;;;16.75;8.85;;;;;;;1.30;92.08;102994.38;5015491;28;20017;-46
2023/02/09 02:13:35;;;;;;;19.95;9.07;;;;;;;1.33;91.87;102994.22;5029685;28;20026;-43
2023/02/09 02:16:04;;;;;;;22.48;9.18;;;;;;;1.33;92.11;102990.72;5029700;28;20481;-44
2023/02/09 02:18:48;;;;;;;26.90;9.80;;;;;;;1.33;92.69;102977.44;5019089;28;20028;-43
2023/02/09 02:21:23;;;;;;;21.58;9.00;;;;;;;1.28;93.32;102967.91;5029374;28;20029;-43
2023/02/09 02:23:59;;;;;;;21.25;9.25;;;;;;;1.27;93.68;102970.63;5029206;28;20357;-42
2023/02/09 02:26:50;;;;;;;16.48;8.43;;;;;;;1.26;95.24;102959.16;5031089;28;20030;-42
2023/02/09 02:29:36;;;;;;;22.98;9.70;;;;;;;1.27;94.88;102960.88;5018298;28;20087;-44
2023/02/09 02:32:05;;;;;;;17.90;8.70;;;;;;;1.29;95.33;102960.78;5018698;28;20425;-42
2023/02/09 02:34:43;;;;;;;15.80;7.63;;;;;;;1.30;95.59;102960.72;5028842;28;20029;-43
2023/02/09 02:37:30;;;;;;;19.35;8.15;;;;;;;1.34;95.70;102964.09;5028064;28;20029;-42
2023/02/09 02:40:12;;;;;;;18.60;8.83;;;;;;;1.37;95.88;102958.69;5024858;28;20025;-42
2023/02/09 02:42:48;;;;;;;18.92;9.05;;;;;;;1.35;96.59;102954.38;5026153;28;20493;-43
2023/02/09 02:45:42;;;;;;;18.45;8.57;;;;;;;1.35;96.72;102944.63;5029979;28;20076;-43
2023/02/09 02:48:17;;;;;;;21.13;9.02;;;;;;;1.36;96.87;102938.38;5027635;28;20029;-42
2023/02/09 02:50:48;;;;;;;19.15;9.02;;;;;;;1.38;97.22;102941.81;5028821;28;20516;-43
2023/02/09 02:53:15;;;;;;;20.23;8.98;;;;;;;1.41;96.88;102938.16;5017888;28;20394;-45
2023/02/09 02:55:41;;;;;;;17.33;8.63;;;;;;;1.44;97.26;102936.22;5012384;28;20033;-43
2023/02/09 02:58:08;;;;;;;21.90;9.57;;;;;;;1.49;97.03;102923.59;5023817;28;20040;-41
2023/02/09 03:00:39;;;;;;;25.02;8.88;;;;;;;1.51;96.39;102927.03;5023347;28;20022;-44
2023/02/09 03:03:08;;;;;;;15.15;8.82;;;;;;;1.59;95.60;102931.13;5016052;28;20061;-42
2023/02/09 03:05:33;;;;;;;24.80;9.80;;;;;;;1.62;94.42;102920.38;5028356;28;20037;-44
2023/02/09 03:07:59;;;;;;;19.95;8.65;;;;;;;1.61;94.97;102926.63;5028594;28;20025;-42
2023/02/09 03:10:26;;;;;;;15.45;8.88;;;;;;;1.57;95.51;102928.53;5021624;28;20129;-42
2023/02/09 03:13:13;;;;;;;20.43;9.10;;;;;;;1.51;96.09;102927.03;5030381;28;20492;-44
2023/02/09 03:15:49;;;;;;;17.55;8.57;;;;;;;1.44;96.69;102922.94;5014142;28;20034;-44
2023/02/09 03:18:52;;;;;;;17.00;9.35;;;;;;;1.40;98.19;102916.09;5032210;28;20072;-43
2023/02/09 03:21:26;;;;;;;17.15;9.10;;;;;;;1.41;98.58;102917.78;5027178;28;20036;-43
2023/02/09 03:23:56;;;;;;;24.75;9.23;;;;;;;1.41;99.16;102911.63;5029846;28;20029;-42
2023/02/09 03:26:24;;;;;;;17.30;9.23;;;;;;;1.41;100.00;102901.88;5033123;28;20091;-42
2023/02/09 03:28:52;;;;;;;22.23;8.98;;;;;;;1.44;99.35;102901.72;5030645;28;20120;-43
2023/02/09 03:31:17;;;;;;;18.73;8.93;;;;;;;1.46;99.55;102904.31;5029085;28;20551;-43
2023/02/09 03:33:43;;;;;;;18.63;10.00;;;;;;;1.43;100.00;102905.31;5030368;28;20049;-42
2023/02/09 03:36:13;;;;;;;18.75;8.45;;;;;;;1.47;99.89;102906.88;5031408;28;20068;-43
2023/02/09 03:38:39;;;;;;;18.35;9.73;;;;;;;1.49;100.00;102889.09;5025598;28;20536;-42
2023/02/09 03:41:05;;;;;;;17.42;8.73;;;;;;;1.45;100.00;102892.84;5032580;28;20034;-42
2023/02/09 03:46:15;;;;;;;18.77;9.18;;;;;;;1.38;100.00;102904.66;5032465;28;20128;-42
2023/02/09 03:48:40;;;;;;;25.30;10.13;;;;;;;1.32;100.00;102902.31;5030762;28;20534;-42
2023/02/09 03:51:05;;;;;;;24.70;9.88;;;;;;;1.28;100.00;102896.28;5030858;28;20481;-44
2023/02/09 03:53:35;;;;;;;25.85;9.75;;;;;;;1.23;100.00;102905.38;5021962;28;20452;-43
2023/02/09 03:56:00;;;;;;;22.23;9.32;;;;;;;1.20;100.00;102901.06;5024118;28;20527;-42
2023/02/09 03:58:25;;;;;;;17.63;9.52;;;;;;;1.16;100.00;102901.28;5023743;28;20157;-43
2023/02/09 04:00:51;;;;;;;23.75;10.25;;;;;;;1.14;100.00;102904.00;5021213;28;20041;-43
2023/02/09 04:03:16;;;;;;;18.30;10.05;;;;;;;1.11;100.00;102893.56;5028841;28;20377;-44
2023/02/09 04:05:41;;;;;;;18.48;9.63;;;;;;;1.12;100.00;102895.25;5030737;28;20039;-42
2023/02/09 04:08:07;;;;;;;18.73;9.98;;;;;;;1.12;100.00;102894.41;5021524;28;20120;-43
2023/02/09 04:10:32;;;;;;;21.75;10.32;;;;;;;1.15;100.00;102889.81;5030443;28;20126;-43
2023/02/09 04:12:57;;;;;;;18.73;9.25;;;;;;;1.18;100.00;102892.31;5021135;28;20033;-43
2023/02/09 04:15:23;;;;;;;17.35;9.82;;;;;;;1.22;100.00;102891.25;5030284;28;20071;-42
2023/02/09 04:17:48;;;;;;;17.95;9.38;;;;;;;1.24;100.00;102900.00;5010912;28;20034;-43
2023/02/09 04:20:13;;;;;;;19.25;9.82;;;;;;;1.27;100.00;102899.00;5020185;28;20075;-42
2023/02/09 04:22:39;;;;;;;17.55;8.98;;;;;;;1.26;100.00;102895.50;5030943;28;20041;-45
2023/02/09 04:25:04;;;;;;;20.55;9.70;;;;;;;1.24;100.00;102885.91;5031542;28;20595;-44
2023/02/09 04:27:30;;;;;;;20.25;9.20;;;;;;;1.21;100.00;102888.66;5028330;28;20030;-45
2023/02/09 04:29:55;;;;;;;17.42;9.88;;;;;;;1.19;100.00;102891.41;5024555;28;20018;-42
2023/02/09 04:32:20;;;;;;;16.88;9.43;;;;;;;1.16;100.00;102901.28;5018745;28;20076;-44
2023/02/09 04:34:46;;;;;;;17.23;9.40;;;;;;;1.15;100.00;102910.19;5029489;28;20515;-43
2023/02/09 04:37:11;;;;;;;18.63;9.73;;;;;;;1.12;100.00;102910.31;5031467;28;20385;-43
2023/02/09 04:39:36;;;;;;;19.13;9.10;;;;;;;1.10;100.00;102919.19;5028816;28;20034;-43
2023/02/09 04:42:02;;;;;;;20.38;9.75;;;;;;;1.09;100.00;102932.53;5022219;28;20477;-41
2023/02/09 04:44:27;;;;;;;20.13;9.48;;;;;;;1.08;100.00;102915.75;5024461;28;20504;-43
2023/02/09 04:46:53;;;;;;;19.27;9.20;;;;;;;1.04;100.00;102930.06;5030425;28;20021;-42
2023/02/09 04:49:18;;;;;;;18.08;9.55;;;;;;;1.03;100.00;102933.69;5013065;28;20115;-43
2023/02/09 04:51:43;;;;;;;17.15;9.10;;;;;;;1.02;100.00;102934.59;5013962;28;20549;-41
2023/02/09 04:54:08;;;;;;;21.63;8.75;;;;;;;1.01;100.00;102919.63;5031823;28;20441;-42
2023/02/09 04:56:34;;;;;;;17.42;9.02;;;;;;;1.00;100.00;102914.38;5030353;28;20425;-44
2023/02/09 05:01:43;;;;;;;20.73;9.63;;;;;;;0.99;100.00;102928.56;5022051;28;20083;-43
2023/02/09 05:04:08;;;;;;;17.63;9.27;;;;;;;0.95;100.00;102925.19;5031504;28;20029;-44
2023/02/09 05:06:34;;;;;;;19.95;8.90;;;;;;;0.96;100.00;102932.22;5029477;28;20025;-44
2023/02/09 05:08:59;;;;;;;18.48;8.68;;;;;;;0.95;100.00;102945.53;5024788;28;20026;-43
2023/02/09 05:11:25;;;;;;;18.58;8.43;;;;;;;0.91;100.00;102947.47;5020988;28;20029;-43
2023/02/09 05:13:50;;;;;;;20.40;8.85;;;;;;;0.90;100.00;102942.25;5031512;28;20369;-44
2023/02/09 05:16:18;;;;;;;17.40;8.43;;;;;;;0.88;100.00;102947.59;5030376;28;20026;-43
2023/02/09 05:18:43;;;;;;;18.30;9.32;;;;;;;0.87;100.00;102940.59;5017102;28;20120;-44
2023/02/09 05:21:09;;;;;;;16.80;8.65;;;;;;;0.84;100.00;102932.75;5013624;28;20117;-44
2023/02/09 05:23:34;;;;;;;19.15;8.88;;;;;;;0.83;100.00;102936.34;5029157;28;20025;-42
2023/02/09 05:25:59;;;;;;;18.38;8.30;;;;;;;0.81;100.00;102936.38;5026939;28;20123;-42
2023/02/09 05:28:25;;;;;;;17.65;8.35;;;;;;;0.82;100.00;102953.19;5028772;28;20096;-41
2023/02/09 05:30:52;;;;;;;16.52;7.97;;;;;;;0.82;100.00;102955.84;5027122;28;20476;-43
2023/02/09 05:33:24;;;;;;;12.80;7.53;;;;;;;0.83;100.00;102966.34;5028352;28;20128;-43
2023/02/09 05:35:51;;;;;;;21.77;8.38;;;;;;;0.82;100.00;102955.84;5019428;28;20025;-43
2023/02/09 05:38:17;;;;;;;15.77;8.02;;;;;;;0.80;100.00;102949.72;5031678;28;20057;-41
2023/02/09 05:40:42;;;;;;;15.98;8.45;;;;;;;0.80;100.00;102945.28;5032143;28;20050;-41
2023/02/09 05:43:08;;;;;;;16.20;8.20;;;;;;;0.80;100.00;102939.13;5014471;28;20163;-42
2023/02/09 05:45:33;;;;;;;19.33;8.50;;;;;;;0.79;100.00;102934.72;5025076;28;20029;-42
2023/02/09 05:47:59;;;;;;;19.20;8.63;;;;;;;0.77;100.00;102937.47;5012424;28;20022;-41
2023/02/09 05:50:24;;;;;;;14.82;8.32;;;;;;;0.76;100.00;102943.69;5015628;28;20453;-41
2023/02/09 05:52:49;;;;;;;12.82;7.15;;;;;;;0.75;100.00;102960.53;5036450;28;20032;-41
2023/02/09 05:55:15;;;;;;;15.30;8.00;;;;;;;0.76;100.00;102964.03;5024874;28;20500;-43
2023/02/09 05:57:40;;;;;;;14.80;7.82;;;;;;;0.74;100.00;102964.13;5028715;28;20036;-43
2023/02/09 06:00:06;;;;;;;13.77;7.78;;;;;;;0.74;100.00;102969.41;5023616;28;20095;-42
2023/02/09 06:02:32;;;;;;;17.98;7.90;;;;;;;0.71;100.00;102952.75;5013262;28;20116;-42
2023/02/09 06:04:57;;;;;;;14.95;8.25;;;;;;;0.69;100.00;102957.28;5017813;28;20522;-41
2023/02/09 06:07:22;;;;;;;19.17;7.75;;;;;;;0.65;100.00;102956.53;5025980;28;20025;-42
2023/02/09 06:09:48;;;;;;;18.33;7.43;;;;;;;0.65;100.00;102959.19;5013680;28;20028;-42
2023/02/09 06:12:13;;;;;;;17.65;7.38;;;;;;;0.65;100.00;102961.84;5010905;28;20111;-43
2023/02/09 06:14:38;;;;;;;17.42;7.47;;;;;;;0.65;100.00;102965.34;5013314;28;20022;-43
2023/02/09 06:17:04;;;;;;;16.40;7.55;;;;;;;0.63;100.00;102977.81;5010416;28;20030;-43
2023/02/09 06:19:29;;;;;;;15.60;7.55;;;;;;;0.63;100.00;102969.00;5010662;28;20030;-43
2023/02/09 06:21:55;;;;;;;13.88;7.28;;;;;;;0.65;100.00;102969.78;5028621;28;20060;-42
2023/02/09 06:24:20;;;;;;;21.38;7.13;;;;;;;0.63;100.00;102956.63;5019511;28;20026;-43
2023/02/09 06:26:45;;;;;;;15.40;6.80;;;;;;;0.62;100.00;102965.47;5014910;28;20026;-43
2023/02/09 06:29:11;;;;;;;13.43;7.15;;;;;;;0.62;100.00;102972.56;5021602;28;20021;-42
2023/02/09 06:31:37;;;;;;;14.48;7.15;;;;;;;0.60;100.00;102967.31;5027770;28;20033;-43
2023/02/09 06:34:04;;;;;;;14.13;7.50;;;;;;;0.59;100.00;102973.56;5019285;28;20041;-43
2023/02/09 06:36:30;;;;;;;14.82;7.35;;;;;;;0.59;100.00;102981.50;5011316;28;20025;-42
2023/02/09 06:38:55;;;;;;;17.40;7.70;;;;;;;0.57;100.00;102972.75;5029882;28;20098;-44
2023/02/09 06:41:20;;;;;;;14.07;7.43;;;;;;;0.56;100.00;102965.75;5024857;28;20377;-43
2023/02/09 06:43:46;;;;;;;16.15;7.45;;;;;;;0.57;100.00;102972.75;5010625;28;20026;-43
2023/02/09 06:46:12;;;;;;;19.67;7.28;;;;;;;0.56;100.00;102960.47;5011600;28;20022;-41
2023/02/09 06:48:38;;;;;;;14.68;7.47;;;;;;;0.57;100.00;102967.47;5014655;28;20099;-43
2023/02/09 06:51:14;;;;;;;13.77;7.47;;;;;;;0.59;100.00;102988.59;5029899;28;20072;-43
2023/02/09 06:53:41;;;;;;;18.02;7.35;;;;;;;0.62;100.00;102984.03;5033965;28;20277;-42
2023/02/09 06:56:07;;;;;;;15.43;7.28;;;;;;;0.61;100.00;102977.03;5032461;28;20031;-42
2023/02/09 06:58:33;;;;;;;14.63;7.00;;;;;;;0.61;100.00;102961.13;5032713;28;20468;-44
2023/02/09 07:01:14;;;;;;;12.15;7.10;;;;;;;0.58;100.00;102969.22;5025925;28;20109;-44
2023/02/09 07:03:39;;;;;;;15.38;6.97;;;;;;;0.61;100.00;102968.22;5032513;28;20120;-44
2023/02/09 07:06:11;;;;;;;13.02;6.72;;;;;;;0.57;100.00;102977.22;5032543;28;20504;-44
2023/02/09 07:08:36;;;;;;;15.80;7.72;;;;;;;0.58;100.00;102971.84;5033887;28;20034;-42
2023/02/09 07:11:07;;;;;;;15.60;6.90;;;;;;;0.55;100.00;102969.31;5033488;28;20037;-42
2023/02/09 07:13:33;;;;;;;21.05;7.28;;;;;;;0.52;100.00;102974.75;5033923;28;20368;-41
2023/02/09 07:15:59;;;;;;;17.42;7.20;;;;;;;0.52;100.00;102984.50;5032219;28;20465;-43
2023/02/09 07:18:25;;;;;;;16.25;7.80;;;;;;;0.52;100.00;102993.28;5015423;28;20034;-41
2023/02/09 07:20:55;;;;;;;15.93;8.15;;;;;;;0.50;100.00;102986.31;5026595;28;20033;-43
2023/02/09 07:23:21;;;;;;;17.63;8.00;;;;;;;0.50;100.00;102997.81;5033073;28;20037;-44
2023/02/09 07:25:46;;;;;;;18.13;8.07;;;;;;;0.51;100.00;102991.56;5032573;28;20035;-42
2023/02/09 07:28:11;;;;;;;17.48;7.00;;;;;;;0.53;100.00;102989.72;5032989;28;20465;-43
2023/02/09 07:30:39;;;;;;;15.63;7.90;;;;;;;0.52;100.00;102998.59;5024830;28;20034;-41
2023/02/09 07:33:05;;;;;;;18.08;7.65;;;;;;;0.53;100.00;102994.19;5014129;28;20061;-42
2023/02/09 07:35:30;;;;;;;17.02;7.43;;;;;;;0.51;100.00;102994.22;5014670;28;20017;-43
2023/02/09 07:37:56;;;;;;;17.77;8.52;;;;;;;0.51;100.00;102994.22;5027504;28;20077;-42
2023/02/09 07:40:21;;;;;;;14.82;7.55;;;;;;;0.50;100.00;102995.16;5032657;28;20481;-43
2023/02/09 07:42:46;;;;;;;16.67;7.82;;;;;;;0.53;100.00;102992.38;5033906;28;20028;-43
2023/02/09 07:45:12;;;;;;;16.45;6.93;;;;;;;0.56;100.00;102980.78;5033842;28;20063;-47
2023/02/09 07:47:37;;;;;;;14.63;7.68;;;;;;;0.55;100.00;102979.06;5033615;28;20028;-44
2023/02/09 07:50:03;;;;;;;17.40;7.53;;;;;;;0.56;100.00;102994.91;5027859;28;20029;-42
2023/02/09 07:52:29;;;;;;;16.75;7.30;;;;;;;0.56;100.00;103002.00;5023086;28;20101;-41
2023/02/09 07:54:54;;;;;;;14.60;7.70;;;;;;;0.57;100.00;102993.97;5030199;28;20044;-43
2023/02/09 07:57:19;;;;;;;15.25;7.95;;;;;;;0.63;100.00;103001.69;5014881;28;20103;-43
2023/02/09 07:59:45;;;;;;;20.58;8.48;;;;;;;0.67;100.00;103001.53;5030685;28;20067;-44
2023/02/09 08:02:16;;;;;;;14.68;7.65;;;;;;;0.71;100.00;102989.88;5022282;28;20124;-43
2023/02/09 08:04:43;;;;;;;15.63;7.75;;;;;;;0.72;100.00;103008.38;5031139;28;20068;-42
2023/02/09 08:07:08;;;;;;;19.83;7.55;;;;;;;0.78;100.00;103017.84;5029686;28;20140;-43
2023/02/09 08:09:34;;;;;;;23.73;8.27;;;;;;;0.85;100.00;103019.31;5029805;28;20108;-43
2023/02/09 08:12:02;;;;;;;21.00;8.15;;;;;;;0.91;100.00;103011.09;5020041;28;20122;-42
2023/02/09 08:14:30;;;;;;;21.25;8.60;;;;;;;0.88;100.00;103001.47;5013620;28;20497;-42
2023/02/09 08:19:44;;;;;;;16.15;7.50;;;;;;;1.07;100.00;103009.50;5019827;28;20099;-43
2023/02/09 08:22:09;;;;;;;18.15;8.00;;;;;;;1.09;100.00;103007.63;5010061;28;20527;-44
2023/02/09 08:24:35;;;;;;;16.90;8.23;;;;;;;1.20;100.00;102998.34;5032844;28;20029;-43
2023/02/09 08:27:00;;;;;;;17.10;7.93;;;;;;;1.30;100.00;102999.66;5030613;28;20029;-42
2023/02/09 08:29:26;;;;;;;18.55;8.30;;;;;;;1.33;100.00;103003.97;5031349;28;20056;-42
2023/02/09 08:31:51;;;;;;;17.77;8.40;;;;;;;1.44;100.00;102997.25;5017689;28;20119;-43
2023/02/09 08:34:17;;;;;;;19.13;8.40;;;;;;;1.44;100.00;102991.94;5013139;28;20377;-42
2023/02/09 08:36:42;;;;;;;15.85;8.23;;;;;;;1.47;100.00;102997.09;5021898;28;20013;-42
2023/02/09 08:39:08;;;;;;;16.65;8.60;;;;;;;1.48;100.00;103004.16;5032522;28;20025;-42
2023/02/09 08:41:34;;;;;;;17.15;8.45;;;;;;;1.58;100.00;103007.25;5022205;28;20026;-44
2023/02/09 08:43:59;;;;;;;19.65;8.90;;;;;;;1.68;100.00;103002.34;5010689;28;20477;-43
2023/02/09 08:46:24;;;;;;;19.63;8.73;;;;;;;1.83;100.00;102990.19;5012392;28;20037;-43
2023/02/09 08:48:51;;;;;;;16.15;8.32;;;;;;;2.00;100.00;103002.63;5026939;28;20030;-42
2023/02/09 08:51:17;;;;;;;21.23;9.23;;;;;;;2.20;100.00;103010.53;5033812;28;20036;-42
2023/02/09 08:53:44;;;;;;;23.25;8.50;;;;;;;2.23;100.00;103007.72;5031988;28;20041;-43
2023/02/09 08:56:10;;;;;;;17.10;8.20;;;;;;;2.19;100.00;103006.16;5030973;28;20025;-43
2023/02/09 08:58:35;;;;;;;19.20;7.85;;;;;;;2.48;100.00;103010.03;5023543;28;20092;-43
2023/02/09 09:01:01;;;;;;;22.38;9.07;;;;;;;2.50;100.00;103012.59;5012033;28;20153;-42
2023/02/09 09:03:30;;;;;;;17.98;8.90;;;;;;;2.74;100.00;103003.41;5011723;28;20045;-41
2023/02/09 09:05:59;;;;;;;22.65;9.43;;;;;;;2.96;100.00;103004.97;5011600;28;20026;-42
2023/02/09 09:08:24;;;;;;;17.20;8.75;;;;;;;2.82;100.00;103011.00;5011856;28;20018;-43
2023/02/09 09:10:50;;;;;;;19.42;9.52;;;;;;;2.67;100.00;103004.66;5017148;28;20037;-41
2023/02/09 09:13:15;;;;;;;17.73;9.43;;;;;;;2.57;100.00;103006.06;5031805;28;20121;-42
2023/02/09 09:15:41;;;;;;;17.83;9.15;;;;;;;2.73;100.00;103007.00;5024220;28;20108;-42
2023/02/09 09:18:07;;;;;;;20.33;9.63;;;;;;;2.97;100.00;103010.19;5030185;28;20446;-42
2023/02/09 09:20:33;;;;;;;21.10;9.38;;;;;;;2.93;100.00;103013.13;5011450;28;20033;-43
2023/02/09 09:22:58;;;;;;;19.08;9.50;;;;;;;2.95;100.00;103005.91;5011132;28;20030;-42
2023/02/09 09:25:23;;;;;;;20.55;9.98;;;;;;;2.91;100.00;103015.84;5030426;28;20067;-43
2023/02/09 09:27:49;;;;;;;25.83;10.10;;;;;;;3.18;100.00;103024.19;5031093;28;20135;-42
2023/02/09 09:30:14;;;;;;;19.27;9.73;;;;;;;3.10;100.00;103017.56;5031039;28;20418;-42
2023/02/09 09:32:40;;;;;;;24.10;10.32;;;;;;;3.12;100.00;103013.03;5029956;28;20388;-43
2023/02/09 09:35:05;;;;;;;20.02;10.48;;;;;;;3.05;100.00;103007.16;5028455;28;20022;-43
2023/02/09 09:37:31;;;;;;;21.77;10.70;;;;;;;3.13;100.00;103020.03;5032116;28;20187;-44
2023/02/09 09:39:57;;;;;;;21.08;10.75;;;;;;;3.25;100.00;103025.59;5042216;28;20029;-42
2023/02/09 09:42:42;;;;;;;24.48;9.70;;;;;;;3.44;100.00;103020.16;5030920;28;20021;-43
2023/02/09 09:45:13;;;;;;;32.67;11.73;;;;;;;3.46;100.00;103018.28;5017251;28;20025;-43
2023/02/09 09:47:40;;;;;;;27.33;11.88;;;;;;;3.49;100.00;103026.09;5020407;28;20033;-43
2023/02/09 09:50:19;;;;;;;24.88;10.57;;;;;;;3.71;100.00;103033.81;5029420;28;20017;-44
2023/02/09 09:53:00;;;;;;;31.13;11.30;;;;;;;3.55;100.00;103026.69;5030683;28;20052;-43
2023/02/09 09:55:27;;;;;;;23.45;11.50;;;;;;;3.59;100.00;103017.63;5028925;28;20026;-43
2023/02/09 09:57:54;;;;;;;23.48;12.23;;;;;;;3.60;100.00;103022.84;5030879;28;20034;-43
2023/02/09 10:00:31;;;;;;;26.52;11.15;;;;;;;3.67;100.00;103032.22;5029657;28;20099;-42
2023/02/09 10:02:56;;;;;;;23.52;10.68;;;;;;;3.78;100.00;103034.31;5029744;28;20048;-43
2023/02/09 10:05:28;;;;;;;22.95;12.32;;;;;;;3.86;100.00;103029.41;5030965;28;20426;-42
2023/02/09 10:07:58;;;;;;;24.13;12.18;;;;;;;3.94;100.00;103034.31;5030257;28;20044;-42
2023/02/09 10:10:39;;;;;;;23.63;12.15;;;;;;;3.94;100.00;103040.50;5029197;28;20484;-43
2023/02/09 10:13:17;;;;;;;21.38;11.93;;;;;;;4.03;100.00;103044.50;5030285;28;20030;-43
2023/02/09 10:15:47;;;;;;;20.90;12.40;;;;;;;4.15;100.00;103037.59;5029213;28;20635;-43
2023/02/09 10:18:14;;;;;;;32.22;14.98;;;;;;;4.20;100.00;103040.88;5030486;28;20029;-43
2023/02/09 10:20:47;;;;;;;30.47;12.83;;;;;;;4.10;100.00;103050.31;5030383;28;20090;-43
2023/02/09 10:23:24;;;;;;;26.38;12.65;;;;;;;4.08;100.00;103053.09;5030611;28;20033;-44
2023/02/09 10:26:00;;;;;;;26.57;13.47;;;;;;;4.12;100.00;103059.94;5030407;28;20052;-43
2023/02/09 10:28:28;;;;;;;26.02;13.15;;;;;;;4.32;100.00;103056.19;5030425;28;20624;-44
2023/02/09 10:30:55;;;;;;;22.98;12.52;;;;;;;4.44;100.00;103051.94;5028975;28;20384;-42
2023/02/09 10:33:20;;;;;;;34.65;14.05;;;;;;;4.48;100.00;103065.97;5029902;28;20045;-42
2023/02/09 10:35:50;;;;;;;31.02;13.57;;;;;;;4.75;100.00;103071.53;5030396;28;20109;-45
2023/02/09 10:38:18;;;;;;;31.27;13.57;;;;;;;4.67;100.00;103068.44;5030476;28;20048;-43
2023/02/09 10:40:46;;;;;;;38.05;13.60;;;;;;;4.95;100.00;103052.53;5030159;28;20121;-42
2023/02/09 10:43:20;;;;;;;31.70;13.27;;;;;;;5.11;100.00;103055.16;5029914;28;20025;-43
2023/02/09 10:45:51;;;;;;;30.83;13.95;;;;;;;5.71;100.00;103059.50;5030211;28;20021;-42
2023/02/09 10:48:19;;;;;;;35.70;14.48;;;;;;;6.23;100.00;103064.25;5030055;28;20449;-43
2023/02/09 10:51:00;;;;;;;37.08;14.88;;;;;;;6.64;100.00;103070.53;5029391;28;20340;-43
2023/02/09 10:53:36;;;;;;;26.98;14.20;;;;;;;6.52;100.00;103069.50;5030181;28;20021;-44
2023/02/09 10:56:22;;;;;;;30.33;14.73;;;;;;;6.49;100.00;103083.09;5030018;28;20147;-43
2023/02/09 10:58:58;;;;;;;34.10;15.95;;;;;;;6.08;100.00;103074.13;5030265;28;20030;-43
2023/02/09 11:01:26;;;;;;;35.47;15.63;;;;;;;5.95;100.00;103075.84;5028547;28;20025;-44
2023/02/09 11:03:57;;;;;;;37.88;16.25;;;;;;;5.64;100.00;103074.19;5029134;28;20361;-43
2023/02/09 11:06:22;;;;;;;41.22;17.23;;;;;;;5.68;100.00;103076.56;5032023;28;20104;-43
2023/02/09 11:08:59;;;;;;;47.78;16.92;;;;;;;5.87;100.00;103081.66;5027196;28;20117;-42
2023/02/09 11:11:32;;;;;;;36.28;16.73;;;;;;;6.05;100.00;103090.31;5012104;28;20033;-42
2023/02/09 11:13:58;;;;;;;40.28;17.48;;;;;;;6.03;100.00;103083.38;5010663;28;20084;-42
2023/02/09 11:16:29;;;;;;;37.28;17.33;;;;;;;5.74;100.00;103080.69;5010646;28;20034;-43
2023/02/09 11:19:09;;;;;;;40.88;18.90;;;;;;;5.66;100.00;103091.84;5015408;28;20477;-44
2023/02/09 11:21:57;;;;;;;44.83;18.55;;;;;;;5.86;100.00;103085.25;5008943;28;20045;-44
2023/02/09 11:24:50;;;;;;;37.17;17.83;;;;;;;5.90;100.00;103091.28;4999852;28;20038;-42
2023/02/09 11:27:34;;;;;;;34.42;17.35;;;;;;;5.99;100.00;103081.84;5014440;28;20057;-43
2023/02/09 11:30:10;;;;;;;49.97;19.48;;;;;;;6.14;100.00;103083.56;5037459;28;20115;-42